createdAt,value
2019-04-14T00:01:04.338Z,5.33
2019-04-14T00:03:45.431Z,5.32
2019-04-14T00:06:20.743Z,5.36
2019-04-14T00:08:56.517Z,5.37
2019-04-14T00:11:34.376Z,5.36
2019-04-14T00:14:14.170Z,5.37
2019-04-14T00:16:49.613Z,5.35
2019-04-14T00:19:26.869Z,5.40
2019-04-14T00:22:03.276Z,5.38
2019-04-14T00:24:38.352Z,5.36
2019-04-14T00:27:13.400Z,5.40
2019-04-14T00:29:48.839Z,5.42
2019-04-14T00:32:24.835Z,5.37
2019-04-14T00:35:18.796Z,5.33
2019-04-14T00:38:06.385Z,5.35
2019-04-14T00:40:43.305Z,5.35
2019-04-14T00:43:37.395Z,5.33
2019-04-14T00:46:17.087Z,5.32
2019-04-14T00:48:52.114Z,5.29
2019-04-14T00:51:27.156Z,5.27
2019-04-14T00:54:02.559Z,5.25
2019-04-14T00:56:39.048Z,5.28
2019-04-14T00:59:14.118Z,5.26
2019-04-14T01:01:49.139Z,5.30
2019-04-14T01:04:25.115Z,5.28
2019-04-14T01:07:00.457Z,5.26
2019-04-14T01:09:35.488Z,5.26
2019-04-14T01:12:10.538Z,5.29
2019-04-14T01:14:45.645Z,5.30
2019-04-14T01:17:21.935Z,5.26
2019-04-14T01:19:57.107Z,5.30
2019-04-14T01:22:32.117Z,5.23
2019-04-14T01:25:08.627Z,5.20
2019-04-14T01:27:45.142Z,5.18
2019-04-14T01:30:21.982Z,5.13
2019-04-14T01:32:57.037Z,5.18
2019-04-14T01:35:33.562Z,5.20
2019-04-14T01:38:08.557Z,5.12
2019-04-14T01:40:44.576Z,5.11
2019-04-14T01:43:19.710Z,5.08
2019-04-14T01:46:07.177Z,5.09
2019-04-14T01:48:32.437Z,5.07
2019-04-14T01:51:09.309Z,5.03
2019-04-14T01:53:47.035Z,4.99
2019-04-14T01:56:40.550Z,4.98
2019-04-14T01:59:17.301Z,4.99
2019-04-14T02:01:58.611Z,4.97
2019-04-14T02:04:33.828Z,4.98
2019-04-14T02:07:10.126Z,5.03
2019-04-14T02:09:45.311Z,5.00
2019-04-14T02:12:21.422Z,4.97
2019-04-14T02:14:58.254Z,4.93
2019-04-14T02:17:34.941Z,4.88
2019-04-14T02:20:10.515Z,4.87
2019-04-14T02:22:46.351Z,4.83
2019-04-14T02:25:21.403Z,4.81
2019-04-14T02:27:58.021Z,4.74
2019-04-14T02:30:41.443Z,4.72
2019-04-14T02:39:22.374Z,4.68
2019-04-14T02:41:51.322Z,4.66
2019-04-14T02:44:04.585Z,4.65
2019-04-14T02:46:47.703Z,4.58
2019-04-14T02:49:16.854Z,4.57
2019-04-14T02:54:37.019Z,4.57
2019-04-14T02:57:15.117Z,4.56
2019-04-14T02:59:45.285Z,4.51
2019-04-14T03:02:29.616Z,4.56
2019-04-14T03:04:59.998Z,4.49
2019-04-14T03:07:38.203Z,4.46
2019-04-14T03:10:16.341Z,4.43
2019-04-14T03:12:46.552Z,4.39
2019-04-14T03:15:25.353Z,4.38
2019-04-14T03:18:24.443Z,4.36
2019-04-14T03:23:48.968Z,4.32
2019-04-14T03:26:27.525Z,4.28
2019-04-14T03:29:13.151Z,4.31
2019-04-14T03:31:59.733Z,4.27
2019-04-14T03:39:44.332Z,4.21
2019-04-14T03:42:21.447Z,4.23
2019-04-14T03:44:51.048Z,4.21
2019-04-14T03:47:31.253Z,4.19
2019-04-14T03:53:12.006Z,4.23
2019-04-14T03:55:18.862Z,4.23
2019-04-14T03:57:37.001Z,4.22
2019-04-14T04:00:13.780Z,4.21
2019-04-14T04:02:48.878Z,4.18
2019-04-14T04:05:23.892Z,4.18
2019-04-14T04:07:58.914Z,4.08
2019-04-14T04:10:35.751Z,4.09
2019-04-14T04:13:10.793Z,4.15
2019-04-14T04:15:50.421Z,4.14
2019-04-14T04:18:47.377Z,4.13
2019-04-14T04:21:24.824Z,4.13
2019-04-14T04:24:04.459Z,4.12
2019-04-14T04:26:47.188Z,4.14
2019-04-14T04:29:24.484Z,4.16
2019-04-14T04:32:07.840Z,4.18
2019-04-14T04:34:44.638Z,4.18
2019-04-14T04:37:26.015Z,4.13
2019-04-14T04:40:02.980Z,4.16
2019-04-14T04:42:38.037Z,4.14
2019-04-14T04:45:32.009Z,4.16
2019-04-14T04:48:08.906Z,4.17
2019-04-14T04:50:45.247Z,4.21
2019-04-14T04:53:20.539Z,4.23
2019-04-14T04:55:56.820Z,4.23
2019-04-14T04:58:32.775Z,4.21
2019-04-14T05:01:07.928Z,4.23
2019-04-14T05:03:42.953Z,4.32
2019-04-14T05:06:41.987Z,4.23
2019-04-14T05:09:38.761Z,4.26
2019-04-14T05:12:19.574Z,4.20
2019-04-14T05:15:03.597Z,4.14
2019-04-14T05:17:45.261Z,4.09
2019-04-14T05:20:20.435Z,4.08
2019-04-14T05:22:55.716Z,4.08
2019-04-14T05:25:31.752Z,4.09
2019-04-14T05:28:09.110Z,4.13
2019-04-14T05:30:44.200Z,4.13
2019-04-14T05:33:20.629Z,4.13
2019-04-14T05:35:57.341Z,4.19
2019-04-14T05:38:33.908Z,4.27
2019-04-14T05:41:09.270Z,4.33
2019-04-14T05:43:51.425Z,4.33
2019-04-14T05:46:21.032Z,4.29
2019-04-14T05:48:56.057Z,4.44
2019-04-14T05:51:33.292Z,4.39
2019-04-14T05:54:09.992Z,4.38
2019-04-14T05:56:47.065Z,4.51
2019-04-14T05:59:22.509Z,4.49
2019-04-14T06:01:57.533Z,4.49
2019-04-14T06:04:33.188Z,4.54
2019-04-14T06:07:08.269Z,4.54
2019-04-14T06:09:47.240Z,4.56
2019-04-14T06:12:22.263Z,4.47
2019-04-14T06:14:57.626Z,4.46
2019-04-14T06:17:32.681Z,4.40
2019-04-14T06:20:07.866Z,4.37
2019-04-14T06:22:43.540Z,4.33
2019-04-14T06:25:18.817Z,4.28
2019-04-14T06:27:53.856Z,4.30
2019-04-14T06:30:36.820Z,4.31
2019-04-14T06:33:13.493Z,4.37
2019-04-14T06:35:50.159Z,4.37
2019-04-14T06:38:26.815Z,4.32
2019-04-14T06:41:03.738Z,4.28
2019-04-14T06:43:48.302Z,4.26
2019-04-14T06:46:15.806Z,4.28
2019-04-14T06:48:50.848Z,4.33
2019-04-14T06:51:25.878Z,4.38
2019-04-14T06:54:00.896Z,4.40
2019-04-14T06:56:36.201Z,4.33
2019-04-14T06:59:11.218Z,4.37
2019-04-14T07:01:46.265Z,4.38
2019-04-14T07:04:21.273Z,4.31
2019-04-14T07:06:56.322Z,4.33
2019-04-14T07:09:31.798Z,4.36
2019-04-14T07:12:07.688Z,4.41
2019-04-14T07:14:43.202Z,4.39
2019-04-14T07:17:18.365Z,4.42
2019-04-14T07:20:01.807Z,4.49
2019-04-14T07:22:30.246Z,4.52
2019-04-14T07:25:05.940Z,4.62
2019-04-14T07:27:40.974Z,4.66
2019-04-14T07:30:37.067Z,4.70
2019-04-14T07:33:33.161Z,4.75
2019-04-14T07:36:19.707Z,4.80
2019-04-14T07:39:14.217Z,4.84
2019-04-14T07:42:07.424Z,4.88
2019-04-14T07:45:01.698Z,4.98
2019-04-14T07:47:39.931Z,5.10
2019-04-14T07:50:30.177Z,5.23
2019-04-14T07:53:23.385Z,5.30
2019-04-14T07:56:15.256Z,5.38
2019-04-14T07:59:09.521Z,5.47
2019-04-14T08:01:46.487Z,5.48
2019-04-14T08:04:23.601Z,5.54
2019-04-14T08:06:59.257Z,5.51
2019-04-14T08:09:35.626Z,5.51
2019-04-14T08:12:15.739Z,5.51
2019-04-14T08:14:50.999Z,5.45
2019-04-14T08:17:26.347Z,5.45
2019-04-14T08:20:01.435Z,5.49
2019-04-14T08:22:36.711Z,5.56
2019-04-14T08:25:12.185Z,5.60
2019-04-14T08:27:52.385Z,5.63
2019-04-14T08:30:27.564Z,5.76
2019-04-14T08:33:03.246Z,5.78
2019-04-14T08:35:39.400Z,5.82
2019-04-14T08:38:15.019Z,5.84
2019-04-14T08:40:50.086Z,5.83
2019-04-14T08:43:26.763Z,5.90
2019-04-14T08:46:20.939Z,5.94
2019-04-14T08:48:57.809Z,5.98
2019-04-14T08:51:41.028Z,6.00
2019-04-14T08:54:17.695Z,5.98
2019-04-14T08:57:00.508Z,5.99
2019-04-14T08:59:50.397Z,6.04
2019-04-14T09:02:40.172Z,6.04
2019-04-14T09:05:16.845Z,6.13
2019-04-14T09:08:07.030Z,6.28
2019-04-14T09:10:43.704Z,6.35
2019-04-14T09:13:19.052Z,6.48
2019-04-14T09:15:54.203Z,6.67
2019-04-14T09:18:29.193Z,6.90
2019-04-14T09:21:04.254Z,7.01
2019-04-14T09:23:39.593Z,7.04
2019-04-14T09:26:14.933Z,6.95
2019-04-14T09:28:50.044Z,6.96
2019-04-14T09:31:25.065Z,7.00
2019-04-14T09:34:00.185Z,6.96
2019-04-14T09:36:37.125Z,7.02
2019-04-14T09:39:13.070Z,7.01
2019-04-14T09:41:48.733Z,6.99
2019-04-14T09:44:24.977Z,7.06
2019-04-14T09:47:00.084Z,6.97
2019-04-14T09:49:35.380Z,6.97
2019-04-14T09:52:10.718Z,6.92
2019-04-14T09:54:46.072Z,6.99
2019-04-14T09:57:21.431Z,6.92
2019-04-14T09:59:56.767Z,6.84
2019-04-14T10:02:32.092Z,6.86
2019-04-14T10:05:07.582Z,6.80
2019-04-14T10:07:42.989Z,6.92
2019-04-14T10:10:18.361Z,6.92
2019-04-14T10:12:53.644Z,6.95
2019-04-14T10:15:28.690Z,6.87
2019-04-14T10:18:03.759Z,6.88
2019-04-14T10:20:38.855Z,6.82
2019-04-14T10:23:13.877Z,6.83
2019-04-14T10:25:48.910Z,6.88
2019-04-14T10:28:23.951Z,6.89
2019-04-14T10:30:58.976Z,6.82
2019-04-14T10:33:34.356Z,6.85
2019-04-14T10:36:09.709Z,6.88
2019-04-14T10:38:44.747Z,6.89
2019-04-14T10:41:19.780Z,6.96
2019-04-14T10:43:54.861Z,6.99
2019-04-14T10:46:30.260Z,6.98
2019-04-14T10:49:05.596Z,7.01
2019-04-14T10:51:40.641Z,7.12
2019-04-14T10:54:15.937Z,7.15
2019-04-14T10:56:50.982Z,7.17
2019-04-14T10:59:27.489Z,7.12
2019-04-14T11:02:06.301Z,7.13
2019-04-14T11:04:41.701Z,7.14
2019-04-14T11:07:21.570Z,7.17
2019-04-14T11:09:56.600Z,7.23
2019-04-14T11:12:31.985Z,7.29
2019-04-14T11:15:07.952Z,7.43
2019-04-14T11:17:42.992Z,7.54
2019-04-14T11:20:18.036Z,7.62
2019-04-14T11:23:03.294Z,7.68
2019-04-14T11:25:30.741Z,7.75
2019-04-14T11:28:05.839Z,7.85
2019-04-14T11:30:40.941Z,8.07
2019-04-14T11:33:17.608Z,8.20
2019-04-14T11:35:54.294Z,8.30
2019-04-14T11:38:30.967Z,8.33
2019-04-14T11:41:14.256Z,8.35
2019-04-14T11:43:49.288Z,8.42
2019-04-14T11:46:24.628Z,8.38
2019-04-14T11:48:59.694Z,8.43
2019-04-14T11:51:34.731Z,8.50
2019-04-14T11:54:11.336Z,8.62
2019-04-14T11:56:46.347Z,8.78
2019-04-14T11:59:23.010Z,8.82
2019-04-14T12:02:05.931Z,8.81
2019-04-14T12:04:45.671Z,8.92
2019-04-14T12:07:25.824Z,9.12
2019-04-14T12:10:02.787Z,9.53
2019-04-14T12:12:38.152Z,9.69
2019-04-14T12:15:16.589Z,9.99
2019-04-14T12:17:52.017Z,10.37
2019-04-14T12:20:27.049Z,10.55
2019-04-14T12:23:02.472Z,10.72
2019-04-14T12:25:37.918Z,10.63
2019-04-14T12:28:13.580Z,10.68
2019-04-14T12:30:48.942Z,10.42
2019-04-14T12:33:24.113Z,10.28
2019-04-14T12:36:01.138Z,10.30
2019-04-14T12:38:36.685Z,10.46
2019-04-14T12:41:13.633Z,10.38
2019-04-14T12:43:53.924Z,10.45
2019-04-14T12:46:33.672Z,10.38
2019-04-14T12:49:10.726Z,10.40
2019-04-14T12:51:57.486Z,10.36
2019-04-14T12:54:33.768Z,10.35
2019-04-14T12:57:09.181Z,10.32
2019-04-14T12:59:44.231Z,10.45
2019-04-14T13:02:24.258Z,10.47
2019-04-14T13:04:59.598Z,10.51
2019-04-14T13:07:36.866Z,10.44
2019-04-14T13:10:11.931Z,10.37
2019-04-14T13:12:46.982Z,10.35
2019-04-14T13:15:22.408Z,10.45
2019-04-14T13:17:57.951Z,10.52
2019-04-14T13:20:33.292Z,10.70
2019-04-14T13:23:14.883Z,10.93
2019-04-14T13:25:45.663Z,11.11
2019-04-14T13:28:21.188Z,11.43
2019-04-14T13:30:57.278Z,11.75
2019-04-14T13:33:32.501Z,12.02
2019-04-14T13:36:07.664Z,12.18
2019-04-14T13:38:43.011Z,12.34
2019-04-14T13:41:19.898Z,12.46
2019-04-14T13:43:56.069Z,12.64
2019-04-14T13:46:32.590Z,12.63
2019-04-14T13:49:10.076Z,12.73
2019-04-14T13:51:45.261Z,12.74
2019-04-14T13:54:21.241Z,12.53
2019-04-14T13:56:56.277Z,12.48
2019-04-14T13:59:32.842Z,12.54
2019-04-14T14:02:08.204Z,12.65
2019-04-14T14:04:43.647Z,12.83
2019-04-14T14:07:18.680Z,12.83
2019-04-14T14:09:57.115Z,12.60
2019-04-14T14:12:36.860Z,12.41
2019-04-14T14:15:13.930Z,12.36
2019-04-14T14:17:51.143Z,12.21
2019-04-14T14:20:44.424Z,12.38
2019-04-14T14:23:27.786Z,12.33
2019-04-14T14:26:04.116Z,12.59
2019-04-14T14:28:39.588Z,13.14
2019-04-14T14:31:18.493Z,13.62
2019-04-14T14:33:54.321Z,14.49
2019-04-14T14:36:29.579Z,15.13
2019-04-14T14:39:07.748Z,15.58
2019-04-14T14:41:43.591Z,15.68
2019-04-14T14:44:20.056Z,15.26
2019-04-14T14:46:56.736Z,15.26
2019-04-14T14:49:51.039Z,15.36
2019-04-14T14:52:27.399Z,15.74
2019-04-14T14:55:03.661Z,15.70
2019-04-14T14:57:38.999Z,15.57
2019-04-14T15:00:22.364Z,15.48
2019-04-14T15:02:57.493Z,15.31
2019-04-14T15:05:32.690Z,15.07
2019-04-14T15:08:07.951Z,14.56
2019-04-14T15:10:45.723Z,14.29
2019-04-14T15:13:21.114Z,14.13
2019-04-14T15:15:56.214Z,14.13
2019-04-14T15:18:31.408Z,14.02
2019-04-14T15:21:06.554Z,13.79
2019-04-14T15:23:41.960Z,13.40
2019-04-14T15:26:17.131Z,13.14
2019-04-14T15:28:52.471Z,13.03
2019-04-14T15:31:27.807Z,12.95
2019-04-14T15:34:03.400Z,12.75
2019-04-14T15:36:39.080Z,12.45
2019-04-14T15:39:14.836Z,12.42
2019-04-14T15:41:50.378Z,12.37
2019-04-14T15:44:25.436Z,12.35
2019-04-14T15:47:00.751Z,12.35
2019-04-14T15:49:38.050Z,12.36
2019-04-14T15:52:13.373Z,12.35
2019-04-14T15:54:48.722Z,12.35
2019-04-14T15:57:38.301Z,12.30
2019-04-14T16:00:15.065Z,12.17
2019-04-14T16:03:09.562Z,12.08
2019-04-14T16:06:06.143Z,12.03
2019-04-14T16:08:49.654Z,11.62
2019-04-14T16:11:40.079Z,11.62
2019-04-14T16:14:17.017Z,11.57
2019-04-14T16:17:06.868Z,11.44
2019-04-14T16:19:54.668Z,11.36
2019-04-14T16:22:29.726Z,11.31
2019-04-14T16:25:06.228Z,11.31
2019-04-14T16:27:49.055Z,11.26
2019-04-14T16:30:44.579Z,11.17
2019-04-14T16:33:24.378Z,11.15
2019-04-14T16:35:59.797Z,11.20
2019-04-14T16:38:35.103Z,11.12
2019-04-14T16:41:10.475Z,11.10
2019-04-14T16:43:59.420Z,11.12
2019-04-14T16:47:08.400Z,11.05
2019-04-14T16:49:50.332Z,11.06
2019-04-14T16:52:27.418Z,11.05
2019-04-14T16:55:22.454Z,11.04
2019-04-14T16:58:02.289Z,11.05
2019-04-14T17:00:39.584Z,11.02
2019-04-14T17:03:16.173Z,11.05
2019-04-14T17:05:51.308Z,11.00
2019-04-14T17:08:27.794Z,10.93
2019-04-14T17:11:03.451Z,10.88
2019-04-14T17:13:42.391Z,10.85
2019-04-14T17:16:22.713Z,10.85
2019-04-14T17:19:32.425Z,10.85
2019-04-14T17:22:15.397Z,10.80
2019-04-14T17:25:10.514Z,10.76
2019-04-14T17:28:04.794Z,10.72
2019-04-14T17:30:54.773Z,10.67
2019-04-14T17:33:34.546Z,10.63
2019-04-14T17:36:28.538Z,10.70
2019-04-14T17:39:11.594Z,10.64
2019-04-14T17:41:49.807Z,10.55
2019-04-14T17:44:28.438Z,10.50
2019-04-14T17:47:17.927Z,10.44
2019-04-14T17:50:41.010Z,10.39
2019-04-14T17:53:26.564Z,10.36
2019-04-14T17:56:03.263Z,10.35
2019-04-14T17:58:53.360Z,10.35
2019-04-14T18:01:30.349Z,10.33
2019-04-14T18:04:25.029Z,10.30
2019-04-14T18:07:13.378Z,10.21
2019-04-14T18:09:59.219Z,10.11
2019-04-14T18:12:42.169Z,10.05
2019-04-14T18:15:29.175Z,9.97
2019-04-14T18:18:17.031Z,9.90
2019-04-14T18:20:54.761Z,9.80
2019-04-14T18:23:31.040Z,9.76
2019-04-14T18:26:09.458Z,9.70
2019-04-14T18:28:56.272Z,9.62
2019-04-14T18:31:39.815Z,9.55
2019-04-14T18:34:16.591Z,9.52
2019-04-14T18:37:07.426Z,9.44
2019-04-14T18:39:44.434Z,9.39
2019-04-14T18:42:33.929Z,9.38
2019-04-14T18:45:28.883Z,9.30
2019-04-14T18:48:21.682Z,9.23
2019-04-14T18:50:58.636Z,9.17
2019-04-14T18:53:45.699Z,9.13
2019-04-14T18:56:41.021Z,9.09
2019-04-14T18:59:29.641Z,9.00
2019-04-14T19:02:05.250Z,8.98
2019-04-14T19:04:40.799Z,8.95
2019-04-14T19:07:16.238Z,8.98
2019-04-14T19:09:51.663Z,8.98
2019-04-14T19:12:34.957Z,8.97
2019-04-14T19:15:14.155Z,8.97
2019-04-14T19:17:51.227Z,8.95
2019-04-14T19:20:26.612Z,8.91
2019-04-14T19:23:01.767Z,8.88
2019-04-14T19:25:38.268Z,8.86
2019-04-14T19:28:14.489Z,8.87
2019-04-14T19:30:50.319Z,8.84
2019-04-14T19:33:25.540Z,8.86
2019-04-14T19:36:01.027Z,8.86
2019-04-14T19:38:42.875Z,8.85
2019-04-14T19:41:18.526Z,8.81
2019-04-14T19:43:54.511Z,8.75
2019-04-14T19:46:29.835Z,8.66
2019-04-14T19:49:05.161Z,8.63
2019-04-14T19:51:40.737Z,8.58
2019-04-14T19:54:15.908Z,8.58
2019-04-14T19:56:53.440Z,8.52
2019-04-14T19:59:31.541Z,8.51
2019-04-14T20:02:06.750Z,8.45
2019-04-14T20:04:42.871Z,8.39
2019-04-14T20:07:18.250Z,8.38
2019-04-14T20:09:53.316Z,8.36
2019-04-14T20:12:30.158Z,8.33
2019-04-14T20:15:08.106Z,8.29
2019-04-14T20:17:44.908Z,8.27
2019-04-14T20:20:43.741Z,8.24
2019-04-14T20:23:34.373Z,8.19
2019-04-14T20:26:20.657Z,8.14
2019-04-14T20:29:01.507Z,8.11
2019-04-14T20:31:45.032Z,8.08
2019-04-14T20:34:20.116Z,8.08
2019-04-14T20:36:55.521Z,8.11
2019-04-14T20:39:31.013Z,8.13
2019-04-14T20:42:07.037Z,8.21
2019-04-14T20:44:43.068Z,8.30
2019-04-14T20:47:18.461Z,8.30
2019-04-14T20:49:53.473Z,8.21
2019-04-14T20:52:28.542Z,8.26
2019-04-14T20:55:05.488Z,8.24
2019-04-14T20:57:40.928Z,8.18
2019-04-14T21:00:20.800Z,8.24
2019-04-14T21:03:12.365Z,8.22
2019-04-14T21:05:58.647Z,8.20
2019-04-14T21:08:52.873Z,8.18
2019-04-14T21:11:29.644Z,8.13
2019-04-14T21:14:09.406Z,8.10
2019-04-14T21:17:01.162Z,8.03
2019-04-14T21:19:37.871Z,7.95
2019-04-14T21:22:32.029Z,7.89
2019-04-14T21:25:09.755Z,7.80
2019-04-14T21:27:49.526Z,7.75
2019-04-14T21:30:43.690Z,7.72
2019-04-14T21:33:21.618Z,7.68
2019-04-14T21:35:58.318Z,7.66
2019-04-14T21:38:55.517Z,7.62
2019-04-14T21:41:32.638Z,7.59
2019-04-14T21:44:07.653Z,7.61
2019-04-14T21:46:43.007Z,7.60
2019-04-14T21:49:18.028Z,7.52
2019-04-14T21:51:54.760Z,7.51
2019-04-14T21:54:29.822Z,7.44
2019-04-14T21:57:25.686Z,7.40
2019-04-14T22:00:06.461Z,7.32
2019-04-14T22:03:02.290Z,7.33
2019-04-14T22:05:48.794Z,7.31
2019-04-14T22:08:32.623Z,7.25
2019-04-14T22:11:09.368Z,7.19
2019-04-14T22:13:46.374Z,7.12
2019-04-14T22:16:21.482Z,7.06
2019-04-14T22:18:56.492Z,7.04
2019-04-14T22:21:31.523Z,6.98
2019-04-14T22:24:06.919Z,6.92
2019-04-14T22:26:41.979Z,6.89
2019-04-14T22:29:16.992Z,6.94
2019-04-14T22:31:52.437Z,6.92
2019-04-14T22:34:27.805Z,6.90
2019-04-14T22:37:02.851Z,6.89
2019-04-14T22:39:39.306Z,6.85
2019-04-14T22:42:14.594Z,6.85
2019-04-14T22:44:49.605Z,6.84
2019-04-14T22:47:24.644Z,6.80
2019-04-14T22:49:59.650Z,6.73
2019-04-14T22:52:34.970Z,6.77
2019-04-14T22:55:10.064Z,6.75
2019-04-14T22:57:45.088Z,6.72
2019-04-14T23:00:41.183Z,6.67
2019-04-14T23:03:18.226Z,6.64
2019-04-14T23:05:55.248Z,6.65
2019-04-14T23:08:38.594Z,6.61
2019-04-14T23:11:21.506Z,6.62
2019-04-14T23:14:01.115Z,6.64
2019-04-14T23:16:55.297Z,6.58
2019-04-14T23:19:49.456Z,6.51
2019-04-14T23:22:38.834Z,6.43
2019-04-14T23:25:13.901Z,6.37
2019-04-14T23:27:48.924Z,6.34
2019-04-14T23:30:23.960Z,6.31
2019-04-14T23:32:58.992Z,6.26
2019-04-14T23:35:34.359Z,6.25
2019-04-14T23:38:09.388Z,6.25
2019-04-14T23:40:45.656Z,6.24
2019-04-14T23:43:20.752Z,6.20
2019-04-14T23:45:56.963Z,6.15
2019-04-14T23:48:31.970Z,6.13
2019-04-14T23:51:07.003Z,6.10
2019-04-14T23:53:42.020Z,6.06
2019-04-14T23:56:17.054Z,6.04
2019-04-14T23:58:52.073Z,6.01
